This is the latest recevied weather packets stored in our database for station/object KE4LOJ. If no packets are shown the sender has not sent any weather packets the latest 10 day(s).
| Time | Temp. | Humidity | Pressure | Rain* | Wind** | Luminosity | Snow |
|---|---|---|---|---|---|---|---|
| 1777224582 | 27.78° C | 62% | 1011.6 hPa | 0 mm | - | 74 W/m² | - |
| 1777224279 | 28.33° C | 61% | 1011.7 hPa | 0 mm | - | 68 W/m² | - |
| 1777223975 | 27.78° C | 60% | 1011.6 hPa | 0 mm | - | 87 W/m² | - |
| 1777223672 | 28.33° C | 61% | 1011.7 hPa | 0 mm | - | 145 W/m² | - |
| 1777223368 | 28.33° C | 61% | 1011.8 hPa | 0 mm | - | 215 W/m² | - |
| 1777223067 | 28.89° C | 59% | 1011.8 hPa | 0 mm | - | 259 W/m² | - |
| 1777222763 | 28.33° C | 60% | 1011.7 hPa | 0 mm | - | 408 W/m² | - |
| 1777222461 | 28.33° C | 60% | 1011.8 hPa | 0 mm | - | 319 W/m² | - |
| 1777222158 | 28.33° C | 62% | 1011.6 hPa | 0 mm | - | 263 W/m² | - |
| 1777221855 | 28.33° C | 61% | 1012 hPa | 0 mm | - | 541 W/m² | - |
| 1777221550 | 28.33° C | 62% | 1011.9 hPa | 0 mm | - | 350 W/m² | - |
| 1777221248 | 28.89° C | 61% | 1011.8 hPa | 0 mm | - | 357 W/m² | - |
| 1777220944 | 28.33° C | 62% | 1011.9 hPa | 0 mm | - | 1003 W/m² | - |
| 1777220640 | 28.89° C | 60% | 1011.8 hPa | 0 mm | - | 915 W/m² | - |
| 1777220337 | 28.33° C | 61% | 1012 hPa | 0 mm | - | 858 W/m² | - |
| 1777220031 | 27.22° C | 64% | 1012.1 hPa | 0 mm | - | 865 W/m² | - |
| 1777219727 | 27.78° C | 64% | 1012.2 hPa | 0 mm | - | 197 W/m² | - |
| 1777219425 | 27.78° C | 63% | 1012.2 hPa | 0 mm | - | 168 W/m² | - |
| 1777219121 | 28.33° C | 60% | 1012.2 hPa | 0 mm | - | 839 W/m² | - |
| 1777218817 | 28.33° C | 62% | 1012.3 hPa | 0 mm | - | 822 W/m² | - |
| 1777218513 | 28.33° C | 60% | 1012.2 hPa | 0 mm | - | 813 W/m² | - |
| 1777218207 | 27.78° C | 60% | 1012.3 hPa | 0 mm | - | 776 W/m² | - |
| 1777217906 | 27.78° C | 62% | 1012.1 hPa | 0 mm | - | 788 W/m² | - |
| 1777217600 | 28.33° C | 60% | 1012.5 hPa | 0 mm | - | 752 W/m² | - |
| 1777217297 | 27.22° C | 63% | 1012.5 hPa | 0 mm | - | 761 W/m² | - |
* Rain latest hour (hover to see other rain measurements)
** Current wind speed in m/s (hover to see current wind gust speed)